sensor_id;sensor_type;location;lat;lon;timestamp;pressure;altitude;pressure_sealevel;temperature;humidity
71970;BME280;59838;52.152;5.436;2023-05-21T00:01:47;102080.47;;;14.26;76.30
71970;BME280;59838;52.152;5.436;2023-05-21T00:04:15;102072.44;;;14.28;76.31
71970;BME280;59838;52.152;5.436;2023-05-21T00:06:42;102073.44;;;14.27;76.56
71970;BME280;59838;52.152;5.436;2023-05-21T00:09:09;102076.69;;;14.29;76.11
71970;BME280;59838;52.152;5.436;2023-05-21T00:11:37;102077.84;;;14.26;76.45
71970;BME280;59838;52.152;5.436;2023-05-21T00:14:04;102071.63;;;14.27;76.00
71970;BME280;59838;52.152;5.436;2023-05-21T00:16:30;102075.50;;;14.32;76.02
71970;BME280;59838;52.152;5.436;2023-05-21T00:18:57;102074.53;;;14.33;76.13
71970;BME280;59838;52.152;5.436;2023-05-21T00:21:24;102079.59;;;14.34;75.87
71970;BME280;59838;52.152;5.436;2023-05-21T00:23:52;102073.72;;;14.32;76.29
71970;BME280;59838;52.152;5.436;2023-05-21T00:26:22;102073.06;;;14.30;76.02
71970;BME280;59838;52.152;5.436;2023-05-21T00:28:49;102071.91;;;14.33;75.96
71970;BME280;59838;52.152;5.436;2023-05-21T00:31:15;102068.50;;;14.32;76.39
71970;BME280;59838;52.152;5.436;2023-05-21T00:33:42;102055.44;;;14.32;76.36
71970;BME280;59838;52.152;5.436;2023-05-21T00:36:09;102054.78;;;14.30;76.73
71970;BME280;59838;52.152;5.436;2023-05-21T00:38:40;102063.97;;;14.26;76.93
71970;BME280;59838;52.152;5.436;2023-05-21T00:41:09;102068.06;;;14.29;76.92
71970;BME280;59838;52.152;5.436;2023-05-21T00:43:36;102055.97;;;14.27;76.83
71970;BME280;59838;52.152;5.436;2023-05-21T00:46:09;102055.34;;;14.25;77.00
71970;BME280;59838;52.152;5.436;2023-05-21T00:48:37;102044.22;;;14.23;77.33
71970;BME280;59838;52.152;5.436;2023-05-21T00:51:05;102055.69;;;14.22;77.30
71970;BME280;59838;52.152;5.436;2023-05-21T00:53:32;102040.34;;;14.19;77.88
71970;BME280;59838;52.152;5.436;2023-05-21T00:56:01;102044.94;;;14.17;77.46
71970;BME280;59838;52.152;5.436;2023-05-21T00:58:28;102044.13;;;14.17;78.00
71970;BME280;59838;52.152;5.436;2023-05-21T01:00:56;102039.06;;;14.15;78.30
71970;BME280;59838;52.152;5.436;2023-05-21T01:03:23;102052.31;;;14.14;78.35
71970;BME280;59838;52.152;5.436;2023-05-21T01:05:50;102049.69;;;14.14;78.52
71970;BME280;59838;52.152;5.436;2023-05-21T01:08:19;102044.00;;;14.10;78.35
71970;BME280;59838;52.152;5.436;2023-05-21T01:10:48;102040.94;;;14.06;79.21
71970;BME280;59838;52.152;5.436;2023-05-21T01:13:15;102049.75;;;14.05;78.77
71970;BME280;59838;52.152;5.436;2023-05-21T01:15:43;102043.72;;;14.05;79.12
71970;BME280;59838;52.152;5.436;2023-05-21T01:18:10;102041.91;;;14.05;78.88
71970;BME280;59838;52.152;5.436;2023-05-21T01:20:37;102036.06;;;14.03;79.00
71970;BME280;59838;52.152;5.436;2023-05-21T01:23:04;102027.59;;;14.01;79.15
71970;BME280;59838;52.152;5.436;2023-05-21T01:25:31;102032.81;;;14.01;78.86
71970;BME280;59838;52.152;5.436;2023-05-21T01:27:58;102028.41;;;14.02;79.22
71970;BME280;59838;52.152;5.436;2023-05-21T01:30:25;102032.34;;;13.98;79.80
71970;BME280;59838;52.152;5.436;2023-05-21T01:33:06;102027.84;;;13.92;80.06
71970;BME280;59838;52.152;5.436;2023-05-21T01:35:42;102032.56;;;13.88;80.11
71970;BME280;59838;52.152;5.436;2023-05-21T01:38:36;102020.81;;;13.92;78.97
71970;BME280;59838;52.152;5.436;2023-05-21T01:41:09;102022.97;;;13.88;79.55
71970;BME280;59838;52.152;5.436;2023-05-21T01:43:39;102024.28;;;13.84;79.86
71970;BME280;59838;52.152;5.436;2023-05-21T01:46:09;102023.47;;;13.84;79.75
71970;BME280;59838;52.152;5.436;2023-05-21T01:48:36;102027.91;;;13.83;79.83
71970;BME280;59838;52.152;5.436;2023-05-21T01:51:05;102022.50;;;13.85;79.50
71970;BME280;59838;52.152;5.436;2023-05-21T01:53:31;102031.16;;;13.85;79.85
71970;BME280;59838;52.152;5.436;2023-05-21T01:55:58;102025.28;;;13.83;80.02
71970;BME280;59838;52.152;5.436;2023-05-21T01:58:24;102027.91;;;13.83;80.02
71970;BME280;59838;52.152;5.436;2023-05-21T02:00:51;102023.66;;;13.82;79.75
71970;BME280;59838;52.152;5.436;2023-05-21T02:03:19;102018.59;;;13.81;79.95
71970;BME280;59838;52.152;5.436;2023-05-21T02:05:46;102028.41;;;13.79;80.56
71970;BME280;59838;52.152;5.436;2023-05-21T02:08:12;102024.34;;;13.76;81.08
71970;BME280;59838;52.152;5.436;2023-05-21T02:10:40;102019.13;;;13.76;80.90
71970;BME280;59838;52.152;5.436;2023-05-21T02:13:06;102014.69;;;13.77;81.01
71970;BME280;59838;52.152;5.436;2023-05-21T02:15:33;102015.88;;;13.74;81.14
71970;BME280;59838;52.152;5.436;2023-05-21T02:18:00;102019.19;;;13.68;81.12
71970;BME280;59838;52.152;5.436;2023-05-21T02:20:27;102026.22;;;13.67;81.51
71970;BME280;59838;52.152;5.436;2023-05-21T02:22:54;102012.16;;;13.68;81.59
71970;BME280;59838;52.152;5.436;2023-05-21T02:25:20;102015.09;;;13.65;82.13
71970;BME280;59838;52.152;5.436;2023-05-21T02:27:47;102009.88;;;13.65;82.13
71970;BME280;59838;52.152;5.436;2023-05-21T02:30:18;102011.06;;;13.63;82.37
71970;BME280;59838;52.152;5.436;2023-05-21T02:32:45;102009.44;;;13.62;82.28
71970;BME280;59838;52.152;5.436;2023-05-21T02:35:14;102012.69;;;13.64;82.31
71970;BME280;59838;52.152;5.436;2023-05-21T02:37:41;102018.25;;;13.61;82.36
71970;BME280;59838;52.152;5.436;2023-05-21T02:40:09;102019.25;;;13.60;83.16
71970;BME280;59838;52.152;5.436;2023-05-21T02:42:37;102016.16;;;13.56;83.22
71970;BME280;59838;52.152;5.436;2023-05-21T02:45:09;102007.34;;;13.57;83.42
71970;BME280;59838;52.152;5.436;2023-05-21T02:47:37;102021.22;;;13.58;83.56
71970;BME280;59838;52.152;5.436;2023-05-21T02:50:06;102012.56;;;13.57;83.29
71970;BME280;59838;52.152;5.436;2023-05-21T02:52:32;102010.78;;;13.58;83.32
71970;BME280;59838;52.152;5.436;2023-05-21T02:54:59;102017.94;;;13.56;83.66
71970;BME280;59838;52.152;5.436;2023-05-21T02:57:25;102014.06;;;13.51;84.13
71970;BME280;59838;52.152;5.436;2023-05-21T02:59:52;102009.19;;;13.48;84.26
71970;BME280;59838;52.152;5.436;2023-05-21T03:02:18;102010.84;;;13.49;84.58
71970;BME280;59838;52.152;5.436;2023-05-21T03:04:45;102009.81;;;13.50;84.46
71970;BME280;59838;52.152;5.436;2023-05-21T03:07:13;102015.03;;;13.50;84.72
71970;BME280;59838;52.152;5.436;2023-05-21T03:09:40;102007.38;;;13.49;84.61
71970;BME280;59838;52.152;5.436;2023-05-21T03:12:09;102008.22;;;13.49;84.81
71970;BME280;59838;52.152;5.436;2023-05-21T03:14:36;102009.81;;;13.50;84.91
71970;BME280;59838;52.152;5.436;2023-05-21T03:17:03;102009.81;;;13.50;85.17
71970;BME280;59838;52.152;5.436;2023-05-21T03:19:32;102006.59;;;13.48;85.00
71970;BME280;59838;52.152;5.436;2023-05-21T03:22:05;102006.59;;;13.48;85.35
71970;BME280;59838;52.152;5.436;2023-05-21T03:24:31;102001.72;;;13.45;85.83
71970;BME280;59838;52.152;5.436;2023-05-21T03:26:58;102002.16;;;13.49;85.45
71970;BME280;59838;52.152;5.436;2023-05-21T03:29:26;102001.19;;;13.50;85.89
71970;BME280;59838;52.152;5.436;2023-05-21T03:31:54;101998.75;;;13.48;85.82
71970;BME280;59838;52.152;5.436;2023-05-21T03:34:20;101991.72;;;13.49;86.35
71970;BME280;59838;52.152;5.436;2023-05-21T03:36:47;101994.81;;;13.52;86.31
71970;BME280;59838;52.152;5.436;2023-05-21T03:39:14;101987.78;;;13.53;86.48
71970;BME280;59838;52.152;5.436;2023-05-21T03:41:41;101985.19;;;13.53;86.13
71970;BME280;59838;52.152;5.436;2023-05-21T03:44:08;101992.22;;;13.52;86.61
71970;BME280;59838;52.152;5.436;2023-05-21T03:46:34;101986.78;;;13.54;86.53
71970;BME280;59838;52.152;5.436;2023-05-21T03:49:01;101987.44;;;13.56;86.75
71970;BME280;59838;52.152;5.436;2023-05-21T03:51:28;101992.00;;;13.54;87.09
71970;BME280;59838;52.152;5.436;2023-05-21T03:53:59;101985.00;;;13.55;87.29
71970;BME280;59838;52.152;5.436;2023-05-21T03:56:26;101989.06;;;13.57;87.00
71970;BME280;59838;52.152;5.436;2023-05-21T03:58:52;101995.91;;;13.58;87.23
71970;BME280;59838;52.152;5.436;2023-05-21T04:01:19;101980.25;;;13.58;87.49
71970;BME280;59838;52.152;5.436;2023-05-21T04:03:45;101991.50;;;13.59;87.89
71970;BME280;59838;52.152;5.436;2023-05-21T04:06:12;101988.88;;;13.59;88.48
71970;BME280;59838;52.152;5.436;2023-05-21T04:08:39;101982.84;;;13.58;88.81
71970;BME280;59838;52.152;5.436;2023-05-21T04:11:05;101989.88;;;13.58;89.09
71970;BME280;59838;52.152;5.436;2023-05-21T04:13:32;101989.22;;;13.56;89.13
71970;BME280;59838;52.152;5.436;2023-05-21T04:15:58;101987.78;;;13.53;89.05
71970;BME280;59838;52.152;5.436;2023-05-21T04:18:25;101987.97;;;13.51;89.05
71970;BME280;59838;52.152;5.436;2023-05-21T04:20:52;101987.00;;;13.52;89.10
71970;BME280;59838;52.152;5.436;2023-05-21T04:23:19;101991.38;;;13.52;89.37
71970;BME280;59838;52.152;5.436;2023-05-21T04:25:48;101983.53;;;13.52;89.33
71970;BME280;59838;52.152;5.436;2023-05-21T04:28:16;101984.38;;;13.52;89.58
71970;BME280;59838;52.152;5.436;2023-05-21T04:30:46;101993.81;;;13.53;89.35
71970;BME280;59838;52.152;5.436;2023-05-21T04:33:13;101992.66;;;13.56;89.04
71970;BME280;59838;52.152;5.436;2023-05-21T04:35:44;101997.06;;;13.56;89.27
71970;BME280;59838;52.152;5.436;2023-05-21T04:38:12;101998.69;;;13.57;89.29
71970;BME280;59838;52.152;5.436;2023-05-21T04:40:39;101999.66;;;13.56;89.30
71970;BME280;59838;52.152;5.436;2023-05-21T04:43:05;101997.91;;;13.56;89.40
71970;BME280;59838;52.152;5.436;2023-05-21T04:45:33;102001.47;;;13.55;89.83
71970;BME280;59838;52.152;5.436;2023-05-21T04:48:00;101994.63;;;13.54;89.82
71970;BME280;59838;52.152;5.436;2023-05-21T04:50:28;101998.88;;;13.55;89.90
71970;BME280;59838;52.152;5.436;2023-05-21T04:52:56;101996.25;;;13.55;90.11
71970;BME280;59838;52.152;5.436;2023-05-21T04:55:24;102002.09;;;13.57;89.89
71970;BME280;59838;52.152;5.436;2023-05-21T04:57:51;101998.34;;;13.60;89.92
71970;BME280;59838;52.152;5.436;2023-05-21T05:00:18;101999.81;;;13.62;89.71
71970;BME280;59838;52.152;5.436;2023-05-21T05:02:45;102006.47;;;13.65;90.03
71970;BME280;59838;52.152;5.436;2023-05-21T05:05:11;102004.50;;;13.67;90.23
71970;BME280;59838;52.152;5.436;2023-05-21T05:07:38;102001.72;;;13.68;90.40
71970;BME280;59838;52.152;5.436;2023-05-21T05:10:05;102001.38;;;13.71;90.45
71970;BME280;59838;52.152;5.436;2023-05-21T05:12:31;102004.63;;;13.74;90.56
71970;BME280;59838;52.152;5.436;2023-05-21T05:14:58;102007.69;;;13.77;90.43
71970;BME280;59838;52.152;5.436;2023-05-21T05:17:24;102006.69;;;13.78;89.91
71970;BME280;59838;52.152;5.436;2023-05-21T05:19:51;102006.34;;;13.81;90.38
71970;BME280;59838;52.152;5.436;2023-05-21T05:22:18;102011.41;;;13.83;90.50
71970;BME280;59838;52.152;5.436;2023-05-21T05:24:44;101999.81;;;13.85;90.21
71970;BME280;59838;52.152;5.436;2023-05-21T05:27:11;101998.63;;;13.88;90.75
71970;BME280;59838;52.152;5.436;2023-05-21T05:29:37;102002.88;;;13.89;90.17
71970;BME280;59838;52.152;5.436;2023-05-21T05:32:04;101995.84;;;13.89;90.54
71970;BME280;59838;52.152;5.436;2023-05-21T05:34:31;101997.63;;;13.89;90.21
71970;BME280;59838;52.152;5.436;2023-05-21T05:36:57;102004.34;;;13.92;90.35
71970;BME280;59838;52.152;5.436;2023-05-21T05:39:24;101996.50;;;13.92;90.37
71970;BME280;59838;52.152;5.436;2023-05-21T05:41:50;102004.59;;;13.97;90.89
71970;BME280;59838;52.152;5.436;2023-05-21T05:44:17;102005.06;;;14.00;90.14
71970;BME280;59838;52.152;5.436;2023-05-21T05:46:43;102004.09;;;14.01;90.28
71970;BME280;59838;52.152;5.436;2023-05-21T05:49:10;102003.06;;;14.02;90.45
71970;BME280;59838;52.152;5.436;2023-05-21T05:51:36;102002.09;;;14.03;89.07
71970;BME280;59838;52.152;5.436;2023-05-21T05:54:03;101996.41;;;14.00;89.67
71970;BME280;59838;52.152;5.436;2023-05-21T05:56:30;101999.50;;;14.03;90.49
71970;BME280;59838;52.152;5.436;2023-05-21T05:58:57;101997.50;;;14.05;89.84
71970;BME280;59838;52.152;5.436;2023-05-21T06:01:24;102000.13;;;14.05;89.85
71970;BME280;59838;52.152;5.436;2023-05-21T06:03:51;102001.13;;;14.04;89.13
71970;BME280;59838;52.152;5.436;2023-05-21T06:06:18;101996.81;;;14.12;90.15
71970;BME280;59838;52.152;5.436;2023-05-21T06:08:45;101985.63;;;14.18;90.05
71970;BME280;59838;52.152;5.436;2023-05-21T06:11:11;101987.66;;;14.31;89.85
71970;BME280;59838;52.152;5.436;2023-05-21T06:13:38;101981.63;;;14.45;88.71
71970;BME280;59838;52.152;5.436;2023-05-21T06:16:05;101978.75;;;14.70;87.40
71970;BME280;59838;52.152;5.436;2023-05-21T06:18:31;101980.66;;;14.76;86.87
71970;BME280;59838;52.152;5.436;2023-05-21T06:20:58;101987.81;;;15.04;86.65
71970;BME280;59838;52.152;5.436;2023-05-21T06:23:24;101981.88;;;15.31;84.63
71970;BME280;59838;52.152;5.436;2023-05-21T06:25:51;101975.72;;;15.39;82.77
71970;BME280;59838;52.152;5.436;2023-05-21T06:28:17;101976.28;;;15.34;83.21
71970;BME280;59838;52.152;5.436;2023-05-21T06:30:44;101978.09;;;15.56;82.99
71970;BME280;59838;52.152;5.436;2023-05-21T06:33:10;101977.09;;;15.57;82.78
71970;BME280;59838;52.152;5.436;2023-05-21T06:35:37;101978.13;;;15.62;82.94
71970;BME280;59838;52.152;5.436;2023-05-21T06:38:05;101974.25;;;15.58;83.74
71970;BME280;59838;52.152;5.436;2023-05-21T06:40:31;101973.88;;;15.76;81.83
71970;BME280;59838;52.152;5.436;2023-05-21T06:42:58;101981.75;;;15.61;81.91
71970;BME280;59838;52.152;5.436;2023-05-21T06:45:25;101980.50;;;15.57;83.30
71970;BME280;59838;52.152;5.436;2023-05-21T06:47:51;101975.75;;;15.67;81.54
71970;BME280;59838;52.152;5.436;2023-05-21T06:50:18;101972.06;;;15.77;82.99
71970;BME280;59838;52.152;5.436;2023-05-21T06:52:45;101970.38;;;15.76;82.16
71970;BME280;59838;52.152;5.436;2023-05-21T06:55:11;101965.59;;;15.58;82.98
71970;BME280;59838;52.152;5.436;2023-05-21T06:57:38;101969.66;;;15.60;83.88
71970;BME280;59838;52.152;5.436;2023-05-21T07:00:05;101972.59;;;15.72;83.29
71970;BME280;59838;52.152;5.436;2023-05-21T07:02:32;101976.50;;;15.76;81.71
71970;BME280;59838;52.152;5.436;2023-05-21T07:04:58;101971.44;;;15.60;82.56
71970;BME280;59838;52.152;5.436;2023-05-21T07:07:25;101968.97;;;15.51;83.77
71970;BME280;59838;52.152;5.436;2023-05-21T07:09:52;101973.97;;;15.68;84.05
71970;BME280;59838;52.152;5.436;2023-05-21T07:12:18;101970.38;;;15.76;83.39
71970;BME280;59838;52.152;5.436;2023-05-21T07:14:44;101971.88;;;15.78;82.58
71970;BME280;59838;52.152;5.436;2023-05-21T07:17:11;101967.41;;;15.79;82.54
71970;BME280;59838;52.152;5.436;2023-05-21T07:19:37;101966.19;;;16.03;81.37
71970;BME280;59838;52.152;5.436;2023-05-21T07:22:04;101967.69;;;16.12;81.45
71970;BME280;59838;52.152;5.436;2023-05-21T07:24:31;101977.16;;;16.13;82.25
71970;BME280;59838;52.152;5.436;2023-05-21T07:26:58;101975.31;;;16.42;82.51
71970;BME280;59838;52.152;5.436;2023-05-21T07:29:24;101971.47;;;16.38;80.54
71970;BME280;59838;52.152;5.436;2023-05-21T07:31:51;101975.50;;;16.40;81.44
71970;BME280;59838;52.152;5.436;2023-05-21T07:34:17;101972.56;;;16.57;79.67
71970;BME280;59838;52.152;5.436;2023-05-21T07:36:44;101968.81;;;16.73;80.91
71970;BME280;59838;52.152;5.436;2023-05-21T07:39:10;101971.56;;;16.93;79.83
71970;BME280;59838;52.152;5.436;2023-05-21T07:41:37;101971.19;;;17.09;77.80
71970;BME280;59838;52.152;5.436;2023-05-21T07:44:03;101972.03;;;17.23;76.94
71970;BME280;59838;52.152;5.436;2023-05-21T07:46:30;101970.66;;;17.41;79.31
71970;BME280;59838;52.152;5.436;2023-05-21T07:48:56;101971.25;;;17.43;77.06
71970;BME280;59838;52.152;5.436;2023-05-21T07:51:23;101963.34;;;17.36;76.19
71970;BME280;59838;52.152;5.436;2023-05-21T07:53:49;101973.63;;;17.17;76.39
71970;BME280;59838;52.152;5.436;2023-05-21T07:56:17;101964.78;;;17.32;75.75
71970;BME280;59838;52.152;5.436;2023-05-21T07:58:44;101962.16;;;17.45;76.77
71970;BME280;59838;52.152;5.436;2023-05-21T08:01:11;101952.06;;;17.76;74.74
71970;BME280;59838;52.152;5.436;2023-05-21T08:03:37;101957.53;;;17.81;75.52
71970;BME280;59838;52.152;5.436;2023-05-21T08:06:04;101945.63;;;17.98;74.67
71970;BME280;59838;52.152;5.436;2023-05-21T08:08:30;101949.00;;;18.19;74.52
71970;BME280;59838;52.152;5.436;2023-05-21T08:10:57;101942.75;;;18.13;73.46
71970;BME280;59838;52.152;5.436;2023-05-21T08:13:24;101939.50;;;18.18;74.78
71970;BME280;59838;52.152;5.436;2023-05-21T08:15:51;101938.66;;;18.82;72.04
71970;BME280;59838;52.152;5.436;2023-05-21T08:18:18;101938.97;;;18.54;73.42
71970;BME280;59838;52.152;5.436;2023-05-21T08:20:45;101937.41;;;18.47;72.91
71970;BME280;59838;52.152;5.436;2023-05-21T08:23:11;101934.25;;;18.18;74.42
71970;BME280;59838;52.152;5.436;2023-05-21T08:25:38;101942.78;;;18.06;73.01
71970;BME280;59838;52.152;5.436;2023-05-21T08:28:05;101941.56;;;18.02;75.91
71970;BME280;59838;52.152;5.436;2023-05-21T08:30:32;101945.19;;;18.08;76.37
71970;BME280;59838;52.152;5.436;2023-05-21T08:32:59;101946.78;;;18.22;73.26
71970;BME280;59838;52.152;5.436;2023-05-21T08:35:26;101949.22;;;18.24;74.43
71970;BME280;59838;52.152;5.436;2023-05-21T08:37:52;101943.75;;;18.25;74.84
71970;BME280;59838;52.152;5.436;2023-05-21T08:40:19;101943.59;;;18.00;72.94
71970;BME280;59838;52.152;5.436;2023-05-21T08:42:47;101953.06;;;17.81;73.74
71970;BME280;59838;52.152;5.436;2023-05-21T08:45:19;101946.41;;;17.79;74.45
71970;BME280;59838;52.152;5.436;2023-05-21T08:47:46;101931.44;;;17.99;74.15
71970;BME280;59838;52.152;5.436;2023-05-21T08:50:15;101941.34;;;18.11;74.52
71970;BME280;59838;52.152;5.436;2023-05-21T08:52:44;101946.78;;;18.22;73.32
71970;BME280;59838;52.152;5.436;2023-05-21T08:55:11;101942.28;;;18.36;73.89
71970;BME280;59838;52.152;5.436;2023-05-21T08:57:41;101947.47;;;18.63;75.82
71970;BME280;59838;52.152;5.436;2023-05-21T09:00:09;101948.34;;;18.95;71.33
71970;BME280;59838;52.152;5.436;2023-05-21T09:02:37;101950.56;;;18.92;71.77
71970;BME280;59838;52.152;5.436;2023-05-21T09:05:08;101947.84;;;19.12;70.35
71970;BME280;59838;52.152;5.436;2023-05-21T09:08:03;101945.00;;;19.13;70.49
71970;BME280;59838;52.152;5.436;2023-05-21T09:10:38;101949.72;;;18.98;70.20
71970;BME280;59838;52.152;5.436;2023-05-21T09:13:07;101953.03;;;18.87;70.17
71970;BME280;59838;52.152;5.436;2023-05-21T09:15:35;101954.47;;;18.82;72.90
71970;BME280;59838;52.152;5.436;2023-05-21T09:18:02;101943.34;;;18.87;70.09
71970;BME280;59838;52.152;5.436;2023-05-21T09:20:29;101942.38;;;19.13;70.78
71970;BME280;59838;52.152;5.436;2023-05-21T09:22:56;101936.09;;;19.08;70.20
71970;BME280;59838;52.152;5.436;2023-05-21T09:25:24;101931.81;;;19.13;72.47
71970;BME280;59838;52.152;5.436;2023-05-21T09:27:56;101941.69;;;19.25;72.06
71970;BME280;59838;52.152;5.436;2023-05-21T09:30:23;101937.31;;;19.44;68.80
71970;BME280;59838;52.152;5.436;2023-05-21T09:32:57;101925.78;;;19.38;69.14
71970;BME280;59838;52.152;5.436;2023-05-21T09:35:24;101926.75;;;19.44;71.45
71970;BME280;59838;52.152;5.436;2023-05-21T09:37:51;101926.16;;;19.67;72.96
71970;BME280;59838;52.152;5.436;2023-05-21T09:40:20;101926.59;;;20.07;69.12
71970;BME280;59838;52.152;5.436;2023-05-21T09:42:54;101909.00;;;19.83;67.84
71970;BME280;59838;52.152;5.436;2023-05-21T09:45:25;101922.31;;;19.63;69.99
71970;BME280;59838;52.152;5.436;2023-05-21T09:47:53;101918.28;;;19.85;68.06
71970;BME280;59838;52.152;5.436;2023-05-21T09:50:22;101917.28;;;19.86;68.43
71970;BME280;59838;52.152;5.436;2023-05-21T09:52:49;101908.72;;;19.66;67.58
71970;BME280;59838;52.152;5.436;2023-05-21T09:55:21;101905.47;;;19.89;70.21
71970;BME280;59838;52.152;5.436;2023-05-21T09:57:50;101902.56;;;19.97;67.67
71970;BME280;59838;52.152;5.436;2023-05-21T10:00:21;101901.53;;;19.98;70.74
71970;BME280;59838;52.152;5.436;2023-05-21T10:02:53;101901.16;;;20.32;68.81
71970;BME280;59838;52.152;5.436;2023-05-21T10:05:24;101896.16;;;20.42;68.41
71970;BME280;59838;52.152;5.436;2023-05-21T10:07:51;101897.19;;;20.41;67.28
71970;BME280;59838;52.152;5.436;2023-05-21T10:10:20;101896.72;;;20.44;66.24
71970;BME280;59838;52.152;5.436;2023-05-21T10:12:54;101897.47;;;20.33;67.11
71970;BME280;59838;52.152;5.436;2023-05-21T10:15:23;101892.81;;;20.35;66.89
71970;BME280;59838;52.152;5.436;2023-05-21T10:17:51;101887.00;;;20.44;66.34
71970;BME280;59838;52.152;5.436;2023-05-21T10:20:18;101884.72;;;20.48;66.26
71970;BME280;59838;52.152;5.436;2023-05-21T10:22:46;101880.44;;;20.47;67.74
71970;BME280;59838;52.152;5.436;2023-05-21T10:25:13;101889.72;;;20.38;66.02
71970;BME280;59838;52.152;5.436;2023-05-21T10:27:40;101882.22;;;20.84;69.14
71970;BME280;59838;52.152;5.436;2023-05-21T10:30:07;101877.03;;;20.77;66.97
71970;BME280;59838;52.152;5.436;2023-05-21T10:32:33;101875.25;;;20.59;65.90
71970;BME280;59838;52.152;5.436;2023-05-21T10:35:00;101867.84;;;20.49;66.02
71970;BME280;59838;52.152;5.436;2023-05-21T10:37:28;101874.03;;;20.24;68.10
71970;BME280;59838;52.152;5.436;2023-05-21T10:39:55;101878.25;;;20.44;65.53
71970;BME280;59838;52.152;5.436;2023-05-21T10:45:30;101864.50;;;20.72;68.26
71970;BME280;59838;52.152;5.436;2023-05-21T10:48:34;101858.34;;;20.78;64.85
71970;BME280;59838;52.152;5.436;2023-05-21T10:51:24;101867.03;;;20.67;65.46
71970;BME280;59838;52.152;5.436;2023-05-21T10:59:51;101866.09;;;21.27;66.58
71970;BME280;59838;52.152;5.436;2023-05-21T11:02:18;101863.31;;;20.98;63.47
71970;BME280;59838;52.152;5.436;2023-05-21T11:04:46;101866.84;;;20.80;64.53
71970;BME280;59838;52.152;5.436;2023-05-21T11:07:21;101862.09;;;20.71;67.22
71970;BME280;59838;52.152;5.436;2023-05-21T11:09:51;101871.56;;;20.90;66.77
71970;BME280;59838;52.152;5.436;2023-05-21T11:12:19;101861.91;;;20.96;64.13
71970;BME280;59838;52.152;5.436;2023-05-21T11:14:56;101869.16;;;20.89;67.13
71970;BME280;59838;52.152;5.436;2023-05-21T11:17:36;101865.84;;;21.05;65.75
71970;BME280;59838;52.152;5.436;2023-05-21T11:20:10;101869.44;;;21.11;65.87
71970;BME280;59838;52.152;5.436;2023-05-21T11:22:36;101858.75;;;21.06;64.46
71970;BME280;59838;52.152;5.436;2023-05-21T11:25:03;101857.13;;;21.05;65.25
71970;BME280;59838;52.152;5.436;2023-05-21T11:27:39;101854.47;;;21.16;63.73
71970;BME280;59838;52.152;5.436;2023-05-21T11:30:14;101852.66;;;21.41;65.11
71970;BME280;59838;52.152;5.436;2023-05-21T11:35:58;101834.50;;;21.68;63.80
71970;BME280;59838;52.152;5.436;2023-05-21T11:38:31;101838.25;;;21.96;63.99
71970;BME280;59838;52.152;5.436;2023-05-21T11:41:02;101832.91;;;21.55;65.53
71970;BME280;59838;52.152;5.436;2023-05-21T11:43:29;101831.06;;;21.67;62.21
71970;BME280;59838;52.152;5.436;2023-05-21T11:45:56;101827.69;;;21.84;64.32
71970;BME280;59838;52.152;5.436;2023-05-21T11:48:23;101823.63;;;21.93;62.71
71970;BME280;59838;52.152;5.436;2023-05-21T11:50:53;101821.84;;;22.10;61.76
71970;BME280;59838;52.152;5.436;2023-05-21T11:53:20;101822.31;;;21.67;63.01
71970;BME280;59838;52.152;5.436;2023-05-21T11:55:47;101810.59;;;21.63;62.49
71970;BME280;59838;52.152;5.436;2023-05-21T11:58:13;101814.94;;;21.81;64.10
71970;BME280;59838;52.152;5.436;2023-05-21T12:00:41;101813.13;;;22.10;63.29
71970;BME280;59838;52.152;5.436;2023-05-21T12:03:12;101805.19;;;22.10;64.26
71970;BME280;59838;52.152;5.436;2023-05-21T12:05:44;101806.84;;;22.28;63.46
71970;BME280;59838;52.152;5.436;2023-05-21T12:08:11;101811.34;;;22.27;62.61
71970;BME280;59838;52.152;5.436;2023-05-21T12:10:38;101809.16;;;22.24;63.48
71970;BME280;59838;52.152;5.436;2023-05-21T12:13:08;101801.06;;;22.02;63.56
71970;BME280;59838;52.152;5.436;2023-05-21T12:15:35;101796.47;;;21.98;64.75
71970;BME280;59838;52.152;5.436;2023-05-21T12:18:02;101799.72;;;21.88;63.49
71970;BME280;59838;52.152;5.436;2023-05-21T12:20:29;101801.28;;;22.13;62.69
71970;BME280;59838;52.152;5.436;2023-05-21T12:22:56;101788.13;;;22.18;62.83
71970;BME280;59838;52.152;5.436;2023-05-21T12:25:22;101781.78;;;22.31;60.70
71970;BME280;59838;52.152;5.436;2023-05-21T12:27:49;101783.53;;;22.13;65.22
71970;BME280;59838;52.152;5.436;2023-05-21T12:30:24;101785.22;;;22.31;63.14
71970;BME280;59838;52.152;5.436;2023-05-21T12:32:51;101782.34;;;22.50;60.97
71970;BME280;59838;52.152;5.436;2023-05-21T12:35:22;101787.75;;;22.26;61.16
71970;BME280;59838;52.152;5.436;2023-05-21T12:37:49;101782.84;;;22.18;60.93
71970;BME280;59838;52.152;5.436;2023-05-21T12:40:16;101786.50;;;22.17;63.11
71970;BME280;59838;52.152;5.436;2023-05-21T12:42:44;101784.63;;;22.00;62.53
71970;BME280;59838;52.152;5.436;2023-05-21T12:45:11;101785.81;;;21.92;64.32
71970;BME280;59838;52.152;5.436;2023-05-21T12:47:38;101780.19;;;22.18;62.09
71970;BME280;59838;52.152;5.436;2023-05-21T12:50:08;101772.16;;;22.13;61.98
71970;BME280;59838;52.152;5.436;2023-05-21T12:52:38;101770.09;;;22.03;62.21
71970;BME280;59838;52.152;5.436;2023-05-21T12:55:06;101770.00;;;22.26;64.38
71970;BME280;59838;52.152;5.436;2023-05-21T12:57:36;101767.25;;;22.33;63.76
71970;BME280;59838;52.152;5.436;2023-05-21T13:00:05;101770.81;;;22.27;61.68
71970;BME280;59838;52.152;5.436;2023-05-21T13:02:40;101779.94;;;22.19;62.53
71970;BME280;59838;52.152;5.436;2023-05-21T13:05:09;101775.66;;;22.30;61.07
71970;BME280;59838;52.152;5.436;2023-05-21T13:07:37;101781.22;;;22.45;62.58